Time;durP1;ratioP1;P1;durP2;ratioP2;P2;SDS_P1;SDS_P2;PMS_P1;PMS_P2;Temp;Humidity;BMP_temperature;BMP_pressure;BME280_temperature;BME280_humidity;BME280_pressure;Samples;Min_cycle;Max_cycle;Signal;HPM_P1;HPM_P2
2024/03/02 00:00:13;;;;;;;4.38;1.60;;;7.30;99.90;;;;;;5079904;28;20036;-66
2024/03/02 00:02:42;;;;;;;2.08;1.33;;;7.30;99.90;;;;;;5083457;28;20394;-66
2024/03/02 00:05:10;;;;;;;2.08;1.10;;;7.30;99.90;;;;;;5080284;28;20048;-66
2024/03/02 00:07:36;;;;;;;2.42;1.80;;;7.30;99.90;;;;;;5082201;28;20043;-66
2024/03/02 00:10:10;;;;;;;3.35;1.60;;;7.30;99.90;;;;;;5080858;28;20044;-66
2024/03/02 00:12:37;;;;;;;3.22;1.27;;;7.40;99.90;;;;;;5113645;27;20055;-66
2024/03/02 00:15:06;;;;;;;2.40;1.38;;;7.40;99.90;;;;;;5079540;28;20024;-66
2024/03/02 00:17:32;;;;;;;1.92;1.23;;;7.40;99.90;;;;;;5065420;28;20060;-66
2024/03/02 00:19:58;;;;;;;2.35;1.10;;;7.40;99.90;;;;;;5087476;28;20407;-66
2024/03/02 00:22:23;;;;;;;2.35;1.40;;;7.40;99.90;;;;;;5080297;28;20033;-66
2024/03/02 00:24:49;;;;;;;2.38;1.48;;;7.40;99.90;;;;;;5084377;28;20127;-66
2024/03/02 00:27:17;;;;;;;1.80;1.10;;;7.50;99.90;;;;;;5081035;28;20059;-66
2024/03/02 00:29:43;;;;;;;3.17;1.50;;;7.60;99.90;;;;;;5079620;28;20036;-66
2024/03/02 00:32:15;;;;;;;2.60;1.13;;;7.60;99.90;;;;;;5082687;28;20135;-66
2024/03/02 00:34:41;;;;;;;2.30;1.45;;;7.60;99.90;;;;;;5081087;28;20036;-66
2024/03/02 00:37:07;;;;;;;3.08;1.27;;;7.60;99.90;;;;;;5107254;27;20045;-66
2024/03/02 00:39:33;;;;;;;2.08;1.23;;;7.60;99.90;;;;;;5082066;28;20043;-66
2024/03/02 00:41:58;;;;;;;2.60;1.20;;;7.60;99.90;;;;;;5082532;28;20040;-66
2024/03/02 00:44:26;;;;;;;2.85;1.67;;;7.70;99.90;;;;;;5079577;28;20051;-66
2024/03/02 00:46:52;;;;;;;1.15;0.90;;;7.60;99.90;;;;;;5079192;28;20058;-66
2024/03/02 00:49:23;;;;;;;1.70;1.30;;;7.60;99.90;;;;;;5081460;28;20405;-66
2024/03/02 00:51:50;;;;;;;3.30;1.08;;;7.70;99.90;;;;;;5077652;28;20064;-66
2024/03/02 00:54:20;;;;;;;1.90;1.02;;;7.70;99.90;;;;;;5080367;28;20028;-66
2024/03/02 00:56:47;;;;;;;1.58;1.23;;;7.70;99.90;;;;;;5064303;28;20071;-66
2024/03/02 00:59:13;;;;;;;1.65;1.30;;;7.70;99.90;;;;;;5077220;28;20616;-66
2024/03/02 01:01:38;;;;;;;2.72;1.20;;;7.70;99.90;;;;;;5076303;28;20070;-66
2024/03/02 01:04:05;;;;;;;2.08;0.93;;;7.80;99.90;;;;;;5081351;28;20454;-66
2024/03/02 01:06:31;;;;;;;1.70;1.20;;;7.90;99.90;;;;;;5078038;28;20050;-66
2024/03/02 01:08:56;;;;;;;3.72;1.20;;;7.90;99.90;;;;;;5077875;28;20546;-66
2024/03/02 01:11:22;;;;;;;3.22;1.73;;;7.80;99.90;;;;;;5078235;28;20037;-66
2024/03/02 01:13:48;;;;;;;1.65;1.10;;;7.90;99.90;;;;;;5081567;28;20096;-66
2024/03/02 01:16:15;;;;;;;3.40;1.40;;;7.80;99.90;;;;;;5065945;28;20127;-66
2024/03/02 01:18:41;;;;;;;2.70;1.42;;;7.80;99.90;;;;;;5106466;27;20126;-66
2024/03/02 01:21:07;;;;;;;3.17;1.73;;;7.80;99.90;;;;;;5109973;27;20119;-66
2024/03/02 01:23:32;;;;;;;3.28;1.50;;;7.80;99.90;;;;;;5081081;28;20028;-66
2024/03/02 01:25:58;;;;;;;2.22;1.30;;;7.70;99.90;;;;;;5064568;28;20087;-65
2024/03/02 01:28:23;;;;;;;4.25;1.20;;;7.80;99.90;;;;;;5080622;28;20048;-66
2024/03/02 01:30:49;;;;;;;2.22;1.42;;;7.70;99.90;;;;;;5077070;28;20039;-66
2024/03/02 01:33:16;;;;;;;2.45;1.60;;;7.70;99.90;;;;;;5079063;28;20079;-66
2024/03/02 01:35:42;;;;;;;1.90;1.70;;;7.70;99.90;;;;;;5078635;28;20031;-66
2024/03/02 01:38:07;;;;;;;1.98;1.02;;;7.60;99.90;;;;;;5078225;28;20044;-66
2024/03/02 01:40:34;;;;;;;1.33;0.90;;;7.60;99.90;;;;;;5080838;28;20063;-66
2024/03/02 01:43:00;;;;;;;2.35;1.30;;;7.60;99.90;;;;;;5080322;28;20044;-66
2024/03/02 01:45:26;;;;;;;1.70;1.13;;;7.60;99.90;;;;;;5077111;28;20044;-66
2024/03/02 01:47:52;;;;;;;2.20;1.38;;;7.60;99.90;;;;;;5076417;28;20040;-66
2024/03/02 01:50:32;;;;;;;2.40;1.20;;;7.60;99.90;;;;;;5078625;28;20052;-66
2024/03/02 01:52:58;;;;;;;1.35;0.93;;;7.70;99.90;;;;;;5082783;28;20077;-66
2024/03/02 01:55:24;;;;;;;2.22;1.50;;;7.60;99.90;;;;;;5079954;28;20124;-66
2024/03/02 01:57:54;;;;;;;2.58;1.17;;;7.70;99.90;;;;;;5080099;28;20120;-66
2024/03/02 02:00:25;;;;;;;1.50;1.00;;;7.70;99.90;;;;;;5078832;28;20040;-66
2024/03/02 02:02:51;;;;;;;4.28;1.92;;;7.80;99.90;;;;;;5081511;28;20101;-66
2024/03/02 02:05:17;;;;;;;2.60;1.15;;;7.70;99.90;;;;;;5077570;28;20183;-66
2024/03/02 02:07:43;;;;;;;1.95;1.30;;;7.80;99.90;;;;;;5077952;28;20040;-66
2024/03/02 02:10:12;;;;;;;4.20;1.55;;;7.80;99.90;;;;;;5084993;28;20051;-66
2024/03/02 02:12:38;;;;;;;1.90;0.98;;;7.80;99.90;;;;;;5089884;28;20159;-66
2024/03/02 02:15:25;;;;;;;2.72;1.15;;;7.80;99.90;;;;;;5084398;28;20072;-66
2024/03/02 02:17:51;;;;;;;1.70;1.00;;;7.80;99.90;;;;;;5083583;28;20051;-66
2024/03/02 02:20:17;;;;;;;2.22;1.38;;;7.70;99.90;;;;;;5081776;28;20039;-66
2024/03/02 02:22:57;;;;;;;1.35;0.88;;;7.70;99.90;;;;;;5083324;28;20420;-66
2024/03/02 02:25:22;;;;;;;1.00;0.82;;;7.80;99.90;;;;;;5113066;27;20047;-66
2024/03/02 02:27:48;;;;;;;1.50;1.20;;;7.80;99.90;;;;;;5086862;28;20040;-66
2024/03/02 02:30:17;;;;;;;3.08;1.30;;;7.80;99.90;;;;;;5082803;28;20191;-66
2024/03/02 02:32:43;;;;;;;2.10;0.98;;;7.80;99.90;;;;;;5084033;28;20067;-66
2024/03/02 02:35:09;;;;;;;1.98;0.90;;;7.70;99.90;;;;;;5083656;28;20075;-66
2024/03/02 02:37:34;;;;;;;2.53;1.33;;;7.80;99.90;;;;;;5084220;28;20390;-66
2024/03/02 02:40:00;;;;;;;2.10;1.23;;;7.80;99.90;;;;;;5082232;28;20039;-66
2024/03/02 02:42:26;;;;;;;2.03;1.50;;;7.80;99.90;;;;;;5085686;28;20458;-66
2024/03/02 02:44:51;;;;;;;3.35;1.48;;;7.80;99.90;;;;;;5087177;28;20071;-66
2024/03/02 02:47:17;;;;;;;2.60;1.20;;;7.80;99.90;;;;;;5080864;28;20040;-66
2024/03/02 02:49:42;;;;;;;1.60;1.13;;;7.90;99.90;;;;;;5082898;28;20044;-66
2024/03/02 02:52:08;;;;;;;2.10;1.08;;;7.90;99.90;;;;;;5084604;28;20032;-66
2024/03/02 02:54:34;;;;;;;1.77;1.30;;;7.90;99.90;;;;;;5082074;28;20036;-66
2024/03/02 02:56:59;;;;;;;2.20;1.00;;;8.00;99.90;;;;;;5082551;28;20117;-65
2024/03/02 02:59:25;;;;;;;1.40;1.15;;;8.00;99.90;;;;;;5080020;28;20054;-66
2024/03/02 03:01:51;;;;;;;1.67;1.02;;;7.90;99.90;;;;;;5114818;27;20067;-66
2024/03/02 03:04:17;;;;;;;1.65;0.95;;;7.90;99.90;;;;;;5080916;28;20494;-66
2024/03/02 03:06:43;;;;;;;1.90;1.23;;;8.00;99.90;;;;;;5083406;28;20043;-66
2024/03/02 03:09:10;;;;;;;2.63;1.15;;;8.00;99.90;;;;;;5080283;28;20518;-66
2024/03/02 03:11:36;;;;;;;2.45;1.33;;;8.00;99.90;;;;;;5065743;28;20036;-66
2024/03/02 03:14:02;;;;;;;2.35;1.23;;;8.00;99.90;;;;;;5082058;28;20045;-66
2024/03/02 03:16:28;;;;;;;2.72;1.00;;;8.00;99.90;;;;;;5082394;28;20044;-66
2024/03/02 03:18:54;;;;;;;1.77;1.17;;;8.10;99.90;;;;;;5080806;28;20040;-66
2024/03/02 03:21:19;;;;;;;1.60;0.95;;;8.00;99.90;;;;;;5083002;28;20036;-66
2024/03/02 03:23:45;;;;;;;2.50;1.00;;;8.00;99.90;;;;;;5080770;28;20636;-66
2024/03/02 03:26:10;;;;;;;1.90;1.25;;;8.00;99.90;;;;;;5113732;27;20722;-66
2024/03/02 03:28:36;;;;;;;1.75;1.08;;;8.00;99.90;;;;;;5080505;28;20107;-66
2024/03/02 03:31:03;;;;;;;1.15;0.88;;;8.00;99.90;;;;;;5077743;28;20640;-66
2024/03/02 03:33:28;;;;;;;1.58;1.00;;;8.00;99.90;;;;;;5080034;28;20137;-66
2024/03/02 03:35:54;;;;;;;2.60;1.10;;;8.00;99.90;;;;;;5082689;28;20488;-66
2024/03/02 03:38:20;;;;;;;1.88;1.10;;;8.00;99.90;;;;;;5080976;28;20040;-66
2024/03/02 03:40:45;;;;;;;2.85;1.60;;;8.00;99.90;;;;;;5082974;28;20506;-66
2024/03/02 03:43:11;;;;;;;3.85;1.35;;;8.00;99.90;;;;;;5083002;28;20547;-66
2024/03/02 03:45:36;;;;;;;1.05;0.75;;;8.00;99.90;;;;;;5078721;28;20114;-65
2024/03/02 03:48:03;;;;;;;2.08;0.95;;;8.00;99.90;;;;;;5081039;28;20044;-66
2024/03/02 03:50:28;;;;;;;2.58;1.15;;;8.00;99.90;;;;;;5079927;28;20458;-66
2024/03/02 03:52:54;;;;;;;3.05;1.15;;;8.00;99.90;;;;;;5081042;28;20074;-66
2024/03/02 03:55:20;;;;;;;1.50;1.02;;;8.00;99.90;;;;;;5078878;28;20051;-66
2024/03/02 03:57:45;;;;;;;3.22;1.10;;;8.00;99.90;;;;;;5111854;27;20054;-66
2024/03/02 04:00:12;;;;;;;1.35;0.80;;;8.00;99.90;;;;;;5081458;28;20040;-66
2024/03/02 04:02:37;;;;;;;2.28;0.98;;;8.00;99.90;;;;;;5082668;28;20295;-66
2024/03/02 04:05:08;;;;;;;2.15;1.08;;;8.00;99.90;;;;;;5083029;28;20106;-66
2024/03/02 04:07:39;;;;;;;1.60;0.65;;;8.00;99.90;;;;;;5081758;28;20047;-66
2024/03/02 04:10:07;;;;;;;1.67;0.98;;;7.90;99.90;;;;;;5112288;27;20570;-66
2024/03/02 04:12:33;;;;;;;1.40;0.93;;;8.00;99.90;;;;;;5080383;28;20400;-66
2024/03/02 04:14:59;;;;;;;1.45;0.82;;;8.20;99.90;;;;;;5082023;28;20135;-66
2024/03/02 04:17:25;;;;;;;2.10;1.08;;;8.00;99.90;;;;;;5082556;28;20132;-66
2024/03/02 04:19:50;;;;;;;2.55;1.02;;;8.00;99.90;;;;;;5080299;28;20039;-66
2024/03/02 04:22:16;;;;;;;2.45;1.13;;;8.00;99.90;;;;;;5086162;28;20094;-66
2024/03/02 04:24:41;;;;;;;2.03;1.40;;;8.00;99.90;;;;;;5083921;28;20040;-66
2024/03/02 04:27:07;;;;;;;2.08;0.98;;;8.00;99.90;;;;;;5082834;28;20044;-66
2024/03/02 04:29:33;;;;;;;1.40;0.82;;;8.00;99.90;;;;;;5082126;28;20051;-66
2024/03/02 04:31:58;;;;;;;1.75;0.90;;;8.00;99.90;;;;;;5108188;27;20409;-66
2024/03/02 04:34:24;;;;;;;2.38;0.90;;;8.00;99.90;;;;;;5082736;28;20135;-66
2024/03/02 04:36:49;;;;;;;2.75;1.15;;;8.00;99.90;;;;;;5083630;28;20040;-66
2024/03/02 04:39:16;;;;;;;2.38;1.05;;;7.90;99.90;;;;;;5081964;28;20551;-66
2024/03/02 04:41:41;;;;;;;2.08;1.10;;;7.90;99.90;;;;;;5080063;28;20047;-66
2024/03/02 04:44:07;;;;;;;3.22;1.20;;;7.90;99.90;;;;;;5080443;28;20040;-66
2024/03/02 04:46:33;;;;;;;2.10;1.00;;;7.90;99.90;;;;;;5080616;28;20044;-66
2024/03/02 04:48:59;;;;;;;1.60;0.98;;;7.90;99.90;;;;;;5080673;28;20033;-66
2024/03/02 04:51:24;;;;;;;2.33;1.05;;;7.90;99.90;;;;;;5110615;27;20032;-66
2024/03/02 04:53:50;;;;;;;1.33;0.80;;;7.90;99.90;;;;;;5077854;28;20032;-66
2024/03/02 04:56:40;;;;;;;3.90;1.20;;;7.90;99.90;;;;;;5078902;28;21756;-66
2024/03/02 04:59:06;;;;;;;2.85;1.25;;;7.90;99.90;;;;;;5081205;28;20040;-66
2024/03/02 05:01:33;;;;;;;1.67;1.02;;;7.90;99.90;;;;;;5083595;28;20085;-66
2024/03/02 05:03:59;;;;;;;1.90;0.95;;;7.90;99.90;;;;;;5083470;28;20039;-66
2024/03/02 05:06:24;;;;;;;2.33;1.25;;;7.90;99.90;;;;;;5082171;28;20043;-66
2024/03/02 05:08:50;;;;;;;5.90;1.25;;;7.80;99.90;;;;;;5108685;27;20048;-66
2024/03/02 05:13:59;;;;;;;4.38;1.52;;;7.80;99.90;;;;;;5084819;28;20636;-65
2024/03/02 05:16:25;;;;;;;6.55;1.30;;;7.80;99.90;;;;;;5079425;28;20170;-66
2024/03/02 05:18:50;;;;;;;3.10;1.17;;;7.80;99.90;;;;;;5077053;28;20036;-66
2024/03/02 05:21:16;;;;;;;8.70;1.33;;;7.80;99.90;;;;;;5082441;28;20048;-66
2024/03/02 05:23:42;;;;;;;3.10;1.27;;;7.80;99.90;;;;;;5074096;28;20051;-66
2024/03/02 05:26:08;;;;;;;2.45;1.20;;;7.70;99.90;;;;;;5078791;28;20075;-66
2024/03/02 05:28:33;;;;;;;2.72;1.13;;;7.80;99.90;;;;;;5075422;28;20047;-66
2024/03/02 05:30:59;;;;;;;5.55;1.40;;;7.80;99.90;;;;;;5081666;28;20131;-66
2024/03/02 05:33:24;;;;;;;4.20;1.33;;;7.80;99.90;;;;;;5074741;28;20041;-66
2024/03/02 05:35:50;;;;;;;4.68;1.33;;;7.80;99.90;;;;;;5079848;28;20750;-66
2024/03/02 05:38:15;;;;;;;2.13;1.35;;;7.80;99.90;;;;;;5076642;28;20123;-66
2024/03/02 05:40:41;;;;;;;4.93;1.27;;;7.80;99.90;;;;;;5071550;28;20080;-66
2024/03/02 05:43:07;;;;;;;4.00;1.20;;;7.80;99.90;;;;;;5081215;28;20071;-66
2024/03/02 05:45:32;;;;;;;2.33;1.30;;;7.80;99.90;;;;;;5074373;28;20513;-66
2024/03/02 05:47:58;;;;;;;2.67;1.40;;;7.80;99.90;;;;;;5076195;28;20494;-66
2024/03/02 05:50:24;;;;;;;2.33;1.20;;;7.70;99.90;;;;;;5073893;28;20039;-66
2024/03/02 05:52:49;;;;;;;3.70;0.90;;;7.80;99.90;;;;;;5074475;28;20036;-66
2024/03/02 05:55:15;;;;;;;6.03;1.00;;;7.80;99.90;;;;;;5079521;28;20048;-66
2024/03/02 06:00:07;;;;;;;2.58;0.95;;;7.80;99.90;;;;;;5078917;28;20521;-66
2024/03/02 06:02:35;;;;;;;3.35;0.98;;;7.80;99.90;;;;;;5077019;28;20089;-66
2024/03/02 06:05:00;;;;;;;1.75;0.70;;;7.80;99.90;;;;;;5072704;28;20051;-66
2024/03/02 06:07:26;;;;;;;2.70;0.80;;;7.70;99.90;;;;;;5073493;28;20431;-66
2024/03/02 06:09:52;;;;;;;3.80;0.90;;;7.70;99.90;;;;;;5072012;28;20103;-66
2024/03/02 06:12:19;;;;;;;1.50;0.65;;;7.70;99.90;;;;;;5073934;28;20044;-66
2024/03/02 06:14:44;;;;;;;1.38;0.70;;;7.70;99.90;;;;;;5075418;28;20036;-66
2024/03/02 06:17:10;;;;;;;1.88;0.60;;;7.60;99.90;;;;;;5074777;28;20778;-66
2024/03/02 06:19:35;;;;;;;1.08;0.60;;;7.50;99.90;;;;;;5073436;28;20039;-66
2024/03/02 06:22:01;;;;;;;1.33;0.70;;;7.40;99.90;;;;;;5070870;28;20151;-66
2024/03/02 06:24:27;;;;;;;1.75;0.50;;;7.40;99.90;;;;;;5057222;28;20044;-66
2024/03/02 06:26:52;;;;;;;1.95;0.65;;;7.40;99.90;;;;;;5074195;28;20032;-66
2024/03/02 06:29:18;;;;;;;1.27;0.52;;;7.30;99.90;;;;;;5074224;28;20052;-66
2024/03/02 06:31:44;;;;;;;4.78;0.75;;;7.60;99.90;;;;;;5075295;28;20070;-66
2024/03/02 06:34:09;;;;;;;2.30;0.60;;;7.20;99.90;;;;;;5074837;28;20174;-66
2024/03/02 06:36:35;;;;;;;1.50;0.63;;;7.40;99.90;;;;;;5075797;28;20032;-66
2024/03/02 06:39:00;;;;;;;6.15;1.23;;;7.20;99.90;;;;;;5078757;28;20036;-66
2024/03/02 06:41:26;;;;;;;4.95;0.80;;;7.20;99.90;;;;;;5078539;28;20028;-66
2024/03/02 06:43:59;;;;;;;3.08;0.70;;;7.20;99.90;;;;;;5077965;28;20116;-66
2024/03/02 06:46:25;;;;;;;1.73;0.75;;;7.10;99.90;;;;;;5081460;28;20039;-66
2024/03/02 06:48:51;;;;;;;3.13;0.80;;;7.20;99.90;;;;;;5068097;28;20044;-66
2024/03/02 06:51:16;;;;;;;3.22;0.65;;;7.10;99.90;;;;;;5077073;28;20031;-66
2024/03/02 06:53:42;;;;;;;1.30;0.50;;;7.10;99.90;;;;;;5106641;27;20077;-66
2024/03/02 06:56:08;;;;;;;3.97;0.45;;;7.00;99.90;;;;;;5081252;28;20036;-66
2024/03/02 06:58:33;;;;;;;6.47;0.50;;;7.00;99.90;;;;;;5078025;28;20063;-66
2024/03/02 07:01:00;;;;;;;3.72;0.40;;;7.00;99.90;;;;;;5079495;28;20106;-66
2024/03/02 07:03:26;;;;;;;3.47;0.40;;;6.90;99.90;;;;;;5075477;28;20055;-66
2024/03/02 07:05:51;;;;;;;8.02;0.35;;;7.20;99.90;;;;;;5077280;28;20052;-66
2024/03/02 07:08:17;;;;;;;7.20;0.38;;;7.60;99.90;;;;;;5079008;28;20070;-66
2024/03/02 07:10:43;;;;;;;0.80;0.20;;;8.10;99.90;;;;;;5075372;28;20040;-66
2024/03/02 07:13:09;;;;;;;0.82;0.40;;;8.60;99.90;;;;;;5081174;28;20048;-65
2024/03/02 07:15:54;;;;;;;3.33;0.30;;;8.80;99.90;;;;;;5080425;28;20032;-66
2024/03/02 07:18:20;;;;;;;1.43;0.20;;;8.90;99.90;;;;;;5076754;28;20063;-65
2024/03/02 07:20:46;;;;;;;0.75;0.10;;;8.80;99.90;;;;;;5079720;28;20395;-66
2024/03/02 07:23:11;;;;;;;0.35;0.20;;;8.70;99.90;;;;;;5079644;28;20110;-66
2024/03/02 07:25:37;;;;;;;0.90;0.40;;;8.70;99.90;;;;;;5078872;28;20115;-66
2024/03/02 07:28:04;;;;;;;0.82;0.20;;;8.60;99.90;;;;;;5080959;28;20113;-66
2024/03/02 07:30:29;;;;;;;2.92;0.17;;;8.60;99.90;;;;;;5077685;28;20440;-66
2024/03/02 07:32:55;;;;;;;2.05;0.10;;;8.50;99.90;;;;;;5082045;28;20040;-66
2024/03/02 07:35:22;;;;;;;2.47;0.13;;;8.40;99.90;;;;;;5075685;28;20036;-66
2024/03/02 07:37:48;;;;;;;1.38;0.20;;;8.50;99.90;;;;;;5072017;28;20056;-66
2024/03/02 07:40:14;;;;;;;6.45;0.30;;;8.40;99.90;;;;;;5082089;28;20052;-66
2024/03/02 07:42:40;;;;;;;1.88;0.20;;;8.30;99.90;;;;;;5086161;28;20040;-66
2024/03/02 07:45:06;;;;;;;8.32;0.20;;;8.20;99.90;;;;;;5080080;28;20032;-66
2024/03/02 07:47:35;;;;;;;3.03;0.10;;;8.20;99.90;;;;;;5084956;28;20047;-67
2024/03/02 07:50:01;;;;;;;0.77;0.10;;;8.20;99.90;;;;;;5085361;28;20041;-66
2024/03/02 07:52:27;;;;;;;0.10;0.00;;;8.10;99.90;;;;;;5087625;28;20035;-66
2024/03/02 07:54:52;;;;;;;0.80;0.20;;;8.10;99.90;;;;;;5084120;28;20128;-66
2024/03/02 07:57:18;;;;;;;0.95;0.20;;;8.20;99.90;;;;;;5082530;28;20038;-66
2024/03/02 07:59:43;;;;;;;0.55;0.17;;;8.20;99.90;;;;;;5080345;28;20044;-66
2024/03/02 08:02:10;;;;;;;1.15;0.10;;;8.10;99.90;;;;;;5082038;28;20470;-66
2024/03/02 08:04:36;;;;;;;0.40;0.10;;;8.20;99.90;;;;;;5081582;28;20083;-66
2024/03/02 08:07:02;;;;;;;0.45;0.10;;;8.20;99.90;;;;;;5079450;28;20062;-66
2024/03/02 08:09:28;;;;;;;2.15;0.20;;;8.30;99.90;;;;;;5081471;28;20041;-66
2024/03/02 08:11:54;;;;;;;1.50;0.30;;;8.30;99.90;;;;;;5082431;28;20492;-66
2024/03/02 08:14:19;;;;;;;0.90;0.30;;;8.40;99.90;;;;;;5081520;28;20040;-66
2024/03/02 08:16:45;;;;;;;0.90;0.20;;;8.40;99.90;;;;;;5085043;28;20044;-66
2024/03/02 08:19:11;;;;;;;1.02;0.17;;;8.40;99.90;;;;;;5079952;28;20072;-66
2024/03/02 08:21:37;;;;;;;0.95;0.30;;;8.40;99.90;;;;;;5082931;28;20115;-66
2024/03/02 08:24:03;;;;;;;0.30;0.10;;;8.40;99.90;;;;;;5083076;28;20039;-66
2024/03/02 08:26:31;;;;;;;1.05;0.20;;;8.60;99.90;;;;;;5083624;28;20513;-66
2024/03/02 08:29:01;;;;;;;1.02;0.20;;;8.60;99.90;;;;;;5063442;28;21898;-66
2024/03/02 08:31:27;;;;;;;0.60;0.15;;;8.80;99.90;;;;;;5082143;28;20028;-66
2024/03/02 08:33:53;;;;;;;1.35;0.30;;;8.90;99.90;;;;;;5082200;28;20059;-66
2024/03/02 08:36:19;;;;;;;1.20;0.20;;;9.10;99.90;;;;;;5080816;28;20541;-66
2024/03/02 08:38:45;;;;;;;0.70;0.13;;;9.20;99.90;;;;;;5079292;28;20028;-66
2024/03/02 08:41:13;;;;;;;1.20;0.20;;;9.30;99.90;;;;;;5083038;28;20040;-66
2024/03/02 08:43:41;;;;;;;0.98;0.10;;;9.20;99.90;;;;;;5082256;28;20032;-66
2024/03/02 08:46:06;;;;;;;3.88;0.40;;;9.20;99.90;;;;;;5079208;28;20032;-66
2024/03/02 08:48:32;;;;;;;5.20;0.40;;;9.20;99.90;;;;;;5081302;28;20445;-66
2024/03/02 08:50:57;;;;;;;2.38;0.30;;;9.20;99.90;;;;;;5083298;28;20044;-66
2024/03/02 08:53:24;;;;;;;1.70;0.20;;;9.30;99.90;;;;;;5079487;28;20040;-66
2024/03/02 08:55:49;;;;;;;1.75;0.20;;;9.30;99.90;;;;;;5080993;28;20040;-66
2024/03/02 08:58:15;;;;;;;1.58;0.20;;;9.20;99.90;;;;;;5082361;28;20567;-66
2024/03/02 09:00:41;;;;;;;1.90;0.20;;;9.30;99.90;;;;;;5078742;28;20037;-66
2024/03/02 09:03:07;;;;;;;0.77;0.20;;;9.40;99.90;;;;;;5078880;28;20040;-66
2024/03/02 09:05:33;;;;;;;1.25;0.20;;;9.50;99.90;;;;;;5080605;28;20104;-66
2024/03/02 09:07:59;;;;;;;4.03;0.20;;;9.60;99.90;;;;;;5108296;27;20032;-66
2024/03/02 09:10:24;;;;;;;2.55;0.10;;;9.70;99.90;;;;;;5080093;28;20044;-66
2024/03/02 09:12:50;;;;;;;1.05;0.20;;;9.70;99.90;;;;;;5112509;27;20517;-66
2024/03/02 09:15:16;;;;;;;1.48;0.20;;;9.60;99.90;;;;;;5080950;28;20465;-66
2024/03/02 09:17:41;;;;;;;2.97;0.10;;;9.60;99.90;;;;;;5080041;28;20093;-66
2024/03/02 09:20:08;;;;;;;1.15;0.20;;;9.60;99.90;;;;;;5079719;28;20062;-66
2024/03/02 09:22:33;;;;;;;3.08;0.30;;;9.70;99.90;;;;;;5099414;27;20500;-66
2024/03/02 09:24:59;;;;;;;1.67;0.22;;;9.60;99.90;;;;;;5082410;28;20028;-66
2024/03/02 09:27:25;;;;;;;1.35;0.30;;;9.60;99.90;;;;;;5081704;28;20035;-66
2024/03/02 09:29:51;;;;;;;0.90;0.15;;;9.60;99.90;;;;;;5081292;28;20390;-66
2024/03/02 09:32:16;;;;;;;0.25;0.10;;;9.60;99.90;;;;;;5080001;28;20040;-66
2024/03/02 09:34:43;;;;;;;1.40;0.20;;;9.70;99.90;;;;;;5064104;28;20048;-66
2024/03/02 09:37:09;;;;;;;1.27;0.40;;;9.90;99.90;;;;;;5079808;28;20647;-66
2024/03/02 09:39:34;;;;;;;1.25;0.20;;;9.70;99.90;;;;;;5081066;28;20048;-66
2024/03/02 09:42:00;;;;;;;1.05;0.20;;;9.70;99.90;;;;;;5077839;28;20059;-66
2024/03/02 09:44:26;;;;;;;1.65;0.20;;;9.70;99.90;;;;;;5081751;28;20042;-66
2024/03/02 09:46:52;;;;;;;1.67;0.20;;;9.60;99.90;;;;;;5076250;28;20096;-66
2024/03/02 09:49:18;;;;;;;1.05;0.20;;;9.60;99.90;;;;;;5080806;28;20102;-66
2024/03/02 09:51:47;;;;;;;1.58;0.20;;;9.50;99.90;;;;;;5080281;28;20044;-66
2024/03/02 09:54:13;;;;;;;0.63;0.40;;;9.60;99.90;;;;;;5080289;28;20047;-66
2024/03/02 09:56:39;;;;;;;0.65;0.10;;;9.60;99.90;;;;;;5080283;28;20039;-66
2024/03/02 09:59:05;;;;;;;2.42;0.38;;;9.70;99.90;;;;;;5079468;28;20040;-66
2024/03/02 10:01:31;;;;;;;1.63;0.20;;;9.90;99.90;;;;;;5078849;28;20051;-66
2024/03/02 10:04:02;;;;;;;1.33;0.20;;;10.10;99.90;;;;;;5080151;28;20102;-66
2024/03/02 10:06:29;;;;;;;0.30;0.20;;;10.20;99.90;;;;;;5079221;28;20523;-66
2024/03/02 10:08:55;;;;;;;3.53;0.20;;;10.20;99.90;;;;;;5080043;28;20119;-66
2024/03/02 10:11:37;;;;;;;2.33;0.57;;;10.30;99.90;;;;;;5074265;28;20600;-66
2024/03/02 10:14:10;;;;;;;2.65;0.40;;;10.40;99.90;;;;;;5078237;28;20493;-66
2024/03/02 10:16:44;;;;;;;1.92;0.30;;;10.50;99.90;;;;;;5077915;28;20048;-66
2024/03/02 10:19:21;;;;;;;1.63;0.28;;;10.60;99.90;;;;;;5075300;28;20041;-66
2024/03/02 10:21:49;;;;;;;1.02;0.30;;;10.70;99.90;;;;;;5061866;28;20057;-66
2024/03/02 10:24:15;;;;;;;1.52;0.28;;;10.90;99.90;;;;;;5108391;28;20064;-66
2024/03/02 10:26:41;;;;;;;1.60;0.30;;;10.90;99.90;;;;;;5078769;28;20079;-66
2024/03/02 10:29:10;;;;;;;4.22;0.52;;;10.90;99.90;;;;;;5076148;28;20048;-66
2024/03/02 10:31:37;;;;;;;1.23;0.20;;;11.00;99.90;;;;;;5078059;28;20521;-66
2024/03/02 10:34:03;;;;;;;3.05;0.30;;;11.00;99.90;;;;;;5080089;28;20123;-66
2024/03/02 10:36:29;;;;;;;1.02;0.28;;;11.10;99.90;;;;;;5081682;28;20124;-66
2024/03/02 10:38:56;;;;;;;1.75;0.20;;;11.30;99.90;;;;;;5111997;27;20044;-66
2024/03/02 10:41:26;;;;;;;3.83;0.28;;;11.30;99.90;;;;;;5084243;28;20089;-66
2024/03/02 10:43:59;;;;;;;2.10;0.45;;;11.30;99.90;;;;;;5080849;28;20358;-66
2024/03/02 10:46:33;;;;;;;1.98;0.30;;;11.40;99.90;;;;;;5082028;28;20052;-66
2024/03/02 10:49:00;;;;;;;0.32;0.10;;;11.80;99.90;;;;;;5080832;28;20036;-66
2024/03/02 10:51:31;;;;;;;1.65;0.30;;;11.40;99.90;;;;;;5081414;28;20123;-67
2024/03/02 10:54:03;;;;;;;3.58;0.30;;;11.60;99.90;;;;;;5081027;28;20487;-66
2024/03/02 10:56:31;;;;;;;0.95;0.20;;;11.70;99.90;;;;;;5080025;28;20040;-66
2024/03/02 10:59:26;;;;;;;1.17;0.20;;;11.70;99.90;;;;;;5079346;28;20033;-66
2024/03/02 11:01:55;;;;;;;2.03;0.60;;;11.80;99.90;;;;;;5081875;28;20084;-66
2024/03/02 11:04:24;;;;;;;1.52;0.20;;;12.00;99.90;;;;;;5080910;28;20032;-66
2024/03/02 11:06:51;;;;;;;0.77;0.30;;;12.00;99.90;;;;;;5113031;27;20044;-66
2024/03/02 11:09:25;;;;;;;1.20;0.20;;;12.20;99.90;;;;;;5079692;28;20041;-66
2024/03/02 11:12:13;;;;;;;0.80;0.20;;;12.30;99.90;;;;;;5081402;28;20390;-66
2024/03/02 11:14:44;;;;;;;0.85;0.20;;;12.30;99.90;;;;;;5080978;28;20033;-66
2024/03/02 11:17:13;;;;;;;3.00;0.20;;;12.50;99.90;;;;;;5080530;28;20044;-66
2024/03/02 11:19:40;;;;;;;2.50;0.20;;;12.60;99.90;;;;;;5104371;28;20052;-66
2024/03/02 11:22:06;;;;;;;0.73;0.13;;;12.70;99.90;;;;;;5082338;28;20059;-66
2024/03/02 11:24:33;;;;;;;4.13;0.20;;;12.80;99.90;;;;;;5081733;28;20078;-66
2024/03/02 11:27:00;;;;;;;2.80;0.32;;;12.90;99.90;;;;;;5078352;28;20052;-66
2024/03/02 11:29:35;;;;;;;2.63;0.30;;;13.00;99.90;;;;;;5079490;28;20424;-66
2024/03/02 11:32:06;;;;;;;3.42;0.63;;;13.10;99.90;;;;;;5068503;28;20082;-66
2024/03/02 11:34:35;;;;;;;1.15;0.20;;;13.20;99.90;;;;;;5081129;28;20037;-67
2024/03/02 11:37:02;;;;;;;1.45;0.28;;;13.30;99.90;;;;;;5112410;27;20036;-66
2024/03/02 11:39:28;;;;;;;2.88;0.40;;;13.40;99.90;;;;;;5081580;28;20039;-66
2024/03/02 11:41:55;;;;;;;1.05;0.22;;;13.40;99.90;;;;;;5080949;28;20044;-66
2024/03/02 11:44:21;;;;;;;3.35;0.35;;;13.40;99.90;;;;;;5080585;28;20056;-66
2024/03/02 11:46:57;;;;;;;1.08;0.40;;;13.50;99.90;;;;;;5081120;28;20036;-66
2024/03/02 11:49:41;;;;;;;;;;;13.40;99.90;;;;;;5079728;28;20040;-66
2024/03/02 11:52:09;;;;;;;1.60;0.28;;;13.50;99.90;;;;;;5078590;28;20012;-66
2024/03/02 11:54:39;;;;;;;2.63;0.40;;;13.50;99.90;;;;;;5082179;28;20040;-66
2024/03/02 11:57:06;;;;;;;1.83;0.45;;;13.60;99.90;;;;;;5081208;28;20066;-66
2024/03/02 11:59:33;;;;;;;2.30;0.38;;;13.60;99.90;;;;;;5078024;28;20384;-66
2024/03/02 12:01:59;;;;;;;2.67;0.20;;;13.90;99.90;;;;;;5111656;27;20131;-66
2024/03/02 12:04:26;;;;;;;5.53;0.88;;;13.80;99.90;;;;;;5083371;28;20047;-66
2024/03/02 12:07:01;;;;;;;2.63;0.30;;;13.80;99.90;;;;;;5068384;28;20040;-66
2024/03/02 12:09:28;;;;;;;3.30;0.40;;;13.90;99.90;;;;;;5096482;28;20039;-66
2024/03/02 12:12:08;;;;;;;3.03;1.08;;;13.90;99.90;;;;;;5080760;28;20051;-67
2024/03/02 12:14:35;;;;;;;2.85;0.65;;;13.90;99.90;;;;;;5082237;28;20035;-66
2024/03/02 12:17:01;;;;;;;1.73;0.30;;;13.90;99.90;;;;;;5112610;27;20059;-66
2024/03/02 12:19:29;;;;;;;1.08;0.30;;;13.90;99.90;;;;;;5082025;28;20040;-66
2024/03/02 12:22:01;;;;;;;2.45;0.40;;;13.70;99.90;;;;;;5079915;28;20487;-66
2024/03/02 12:24:28;;;;;;;2.00;0.40;;;13.40;99.90;;;;;;5080297;28;20051;-66
2024/03/02 12:26:54;;;;;;;1.95;0.50;;;13.50;99.90;;;;;;5078517;28;20044;-66
2024/03/02 12:29:21;;;;;;;1.33;0.28;;;13.70;99.90;;;;;;5081201;28;20151;-66
2024/03/02 12:31:52;;;;;;;2.30;0.40;;;14.00;99.90;;;;;;5081844;28;20111;-66
2024/03/02 12:34:18;;;;;;;5.57;0.57;;;14.00;99.90;;;;;;5068184;28;20044;-66
2024/03/02 12:36:49;;;;;;;1.33;0.40;;;14.00;99.90;;;;;;5083546;28;20032;-66
2024/03/02 12:39:18;;;;;;;1.77;0.30;;;14.10;99.90;;;;;;5078345;28;20111;-66
2024/03/02 12:41:46;;;;;;;2.70;0.57;;;14.30;99.70;;;;;;5082518;28;20040;-66
2024/03/02 12:44:11;;;;;;;1.15;0.20;;;14.30;99.60;;;;;;5079707;28;20048;-67
2024/03/02 12:46:37;;;;;;;1.92;0.52;;;14.10;99.20;;;;;;5079225;28;20040;-67
2024/03/02 12:49:10;;;;;;;2.65;0.50;;;14.10;98.10;;;;;;5081281;28;20043;-66
2024/03/02 12:51:37;;;;;;;1.90;0.32;;;14.30;98.90;;;;;;5081687;28;20081;-66
2024/03/02 12:54:03;;;;;;;3.08;0.82;;;14.10;98.80;;;;;;5080711;28;20108;-66
2024/03/02 12:56:29;;;;;;;2.13;0.55;;;14.10;98.60;;;;;;5075571;28;20470;-65
2024/03/02 12:58:56;;;;;;;1.27;0.65;;;14.10;99.20;;;;;;5076562;28;20093;-66